sensor_id;sensor_type;location;lat;lon;timestamp;temperature;humidity
18173;DHT22;9211;48.818;9.312;2023-12-22T00:02:13;9.40;99.90
18173;DHT22;9211;48.818;9.312;2023-12-22T00:04:40;9.30;99.90
18173;DHT22;9211;48.818;9.312;2023-12-22T00:07:07;9.20;99.90
18173;DHT22;9211;48.818;9.312;2023-12-22T00:09:34;9.30;99.90
18173;DHT22;9211;48.818;9.312;2023-12-22T00:12:01;9.30;99.90
18173;DHT22;9211;48.818;9.312;2023-12-22T00:14:29;9.30;99.90
18173;DHT22;9211;48.818;9.312;2023-12-22T00:16:56;9.30;99.90
18173;DHT22;9211;48.818;9.312;2023-12-22T00:19:23;9.50;99.90
18173;DHT22;9211;48.818;9.312;2023-12-22T00:21:49;9.30;99.90
18173;DHT22;9211;48.818;9.312;2023-12-22T00:24:16;9.20;99.90
18173;DHT22;9211;48.818;9.312;2023-12-22T00:26:43;9.20;99.90
18173;DHT22;9211;48.818;9.312;2023-12-22T00:29:10;9.10;99.90
18173;DHT22;9211;48.818;9.312;2023-12-22T00:31:38;9.10;99.90
18173;DHT22;9211;48.818;9.312;2023-12-22T00:34:05;9.10;99.90
18173;DHT22;9211;48.818;9.312;2023-12-22T00:36:32;9.10;99.90
18173;DHT22;9211;48.818;9.312;2023-12-22T00:38:59;9.20;99.90
18173;DHT22;9211;48.818;9.312;2023-12-22T00:41:26;9.10;99.90
18173;DHT22;9211;48.818;9.312;2023-12-22T00:43:52;9.00;99.90
18173;DHT22;9211;48.818;9.312;2023-12-22T00:46:19;9.00;99.90
18173;DHT22;9211;48.818;9.312;2023-12-22T00:48:48;8.80;99.90
18173;DHT22;9211;48.818;9.312;2023-12-22T00:51:14;8.90;99.90
18173;DHT22;9211;48.818;9.312;2023-12-22T00:53:42;9.00;99.90
18173;DHT22;9211;48.818;9.312;2023-12-22T00:56:09;9.00;99.90
18173;DHT22;9211;48.818;9.312;2023-12-22T00:58:38;8.90;99.90
18173;DHT22;9211;48.818;9.312;2023-12-22T01:01:05;8.90;99.90
18173;DHT22;9211;48.818;9.312;2023-12-22T01:03:32;12.60;99.90
18173;DHT22;9211;48.818;9.312;2023-12-22T01:06:00;8.50;99.90
18173;DHT22;9211;48.818;9.312;2023-12-22T01:08:27;8.30;99.90
18173;DHT22;9211;48.818;9.312;2023-12-22T01:10:54;8.30;99.90
18173;DHT22;9211;48.818;9.312;2023-12-22T01:13:20;9.10;99.90
18173;DHT22;9211;48.818;9.312;2023-12-22T01:15:47;5.30;99.90
18173;DHT22;9211;48.818;9.312;2023-12-22T01:18:14;8.00;99.90
18173;DHT22;9211;48.818;9.312;2023-12-22T01:20:41;7.90;99.90
18173;DHT22;9211;48.818;9.312;2023-12-22T01:23:09;8.00;99.90
18173;DHT22;9211;48.818;9.312;2023-12-22T01:25:36;8.00;99.90
18173;DHT22;9211;48.818;9.312;2023-12-22T01:28:03;7.90;99.90
18173;DHT22;9211;48.818;9.312;2023-12-22T01:30:30;7.80;99.90
18173;DHT22;9211;48.818;9.312;2023-12-22T01:32:57;7.80;99.90
18173;DHT22;9211;48.818;9.312;2023-12-22T01:35:24;8.80;99.90
18173;DHT22;9211;48.818;9.312;2023-12-22T01:37:51;7.80;99.90
18173;DHT22;9211;48.818;9.312;2023-12-22T01:40:19;7.80;99.90
18173;DHT22;9211;48.818;9.312;2023-12-22T01:42:47;7.90;99.90
18173;DHT22;9211;48.818;9.312;2023-12-22T01:45:14;8.00;99.90
18173;DHT22;9211;48.818;9.312;2023-12-22T01:47:42;4.90;99.90
18173;DHT22;9211;48.818;9.312;2023-12-22T01:50:10;8.20;99.90
18173;DHT22;9211;48.818;9.312;2023-12-22T01:52:37;8.40;99.90
18173;DHT22;9211;48.818;9.312;2023-12-22T01:55:06;8.50;99.90
18173;DHT22;9211;48.818;9.312;2023-12-22T01:57:34;8.50;99.90
18173;DHT22;9211;48.818;9.312;2023-12-22T02:00:02;8.60;99.90
18173;DHT22;9211;48.818;9.312;2023-12-22T02:02:37;8.70;99.90
18173;DHT22;9211;48.818;9.312;2023-12-22T02:05:06;8.80;99.90
18173;DHT22;9211;48.818;9.312;2023-12-22T02:07:34;8.80;99.90
18173;DHT22;9211;48.818;9.312;2023-12-22T02:10:01;8.80;99.90
18173;DHT22;9211;48.818;9.312;2023-12-22T02:14:58;8.80;99.90
18173;DHT22;9211;48.818;9.312;2023-12-22T02:17:32;8.80;99.90
18173;DHT22;9211;48.818;9.312;2023-12-22T02:20:00;8.80;99.90
18173;DHT22;9211;48.818;9.312;2023-12-22T02:22:30;8.80;99.90
18173;DHT22;9211;48.818;9.312;2023-12-22T02:24:57;8.80;99.90
18173;DHT22;9211;48.818;9.312;2023-12-22T02:27:28;9.50;99.90
18173;DHT22;9211;48.818;9.312;2023-12-22T02:30:05;9.20;99.90
18173;DHT22;9211;48.818;9.312;2023-12-22T02:32:36;8.90;99.90
18173;DHT22;9211;48.818;9.312;2023-12-22T02:35:08;8.90;99.90
18173;DHT22;9211;48.818;9.312;2023-12-22T02:37:39;8.90;99.90
18173;DHT22;9211;48.818;9.312;2023-12-22T02:40:07;8.80;99.90
18173;DHT22;9211;48.818;9.312;2023-12-22T02:42:36;8.80;99.90
18173;DHT22;9211;48.818;9.312;2023-12-22T02:45:04;8.80;99.90
18173;DHT22;9211;48.818;9.312;2023-12-22T02:47:31;8.80;99.90
18173;DHT22;9211;48.818;9.312;2023-12-22T02:49:59;6.70;99.90
18173;DHT22;9211;48.818;9.312;2023-12-22T02:52:26;8.80;99.90
18173;DHT22;9211;48.818;9.312;2023-12-22T02:54:54;8.50;99.90
18173;DHT22;9211;48.818;9.312;2023-12-22T02:57:21;8.80;99.90
18173;DHT22;9211;48.818;9.312;2023-12-22T02:59:47;8.80;99.90
18173;DHT22;9211;48.818;9.312;2023-12-22T03:02:14;8.90;99.90
18173;DHT22;9211;48.818;9.312;2023-12-22T03:04:41;8.80;99.90
18173;DHT22;9211;48.818;9.312;2023-12-22T03:07:08;8.90;99.90
18173;DHT22;9211;48.818;9.312;2023-12-22T03:09:35;8.80;99.90
18173;DHT22;9211;48.818;9.312;2023-12-22T03:12:03;8.90;99.90
18173;DHT22;9211;48.818;9.312;2023-12-22T03:14:31;8.90;99.90
18173;DHT22;9211;48.818;9.312;2023-12-22T03:16:58;9.90;99.90
18173;DHT22;9211;48.818;9.312;2023-12-22T03:19:25;8.80;99.90
18173;DHT22;9211;48.818;9.312;2023-12-22T03:21:52;8.90;99.90
18173;DHT22;9211;48.818;9.312;2023-12-22T03:24:19;8.90;99.90
18173;DHT22;9211;48.818;9.312;2023-12-22T03:26:47;9.00;99.90
18173;DHT22;9211;48.818;9.312;2023-12-22T03:29:16;9.00;99.90
18173;DHT22;9211;48.818;9.312;2023-12-22T03:31:43;9.00;99.90
18173;DHT22;9211;48.818;9.312;2023-12-22T03:34:11;9.10;99.90
18173;DHT22;9211;48.818;9.312;2023-12-22T03:36:38;9.10;99.90
18173;DHT22;9211;48.818;9.312;2023-12-22T03:39:05;9.20;99.90
18173;DHT22;9211;48.818;9.312;2023-12-22T03:41:32;9.20;99.90
18173;DHT22;9211;48.818;9.312;2023-12-22T03:43:59;9.20;99.90
18173;DHT22;9211;48.818;9.312;2023-12-22T03:46:27;9.20;99.90
18173;DHT22;9211;48.818;9.312;2023-12-22T03:48:54;9.30;99.90
18173;DHT22;9211;48.818;9.312;2023-12-22T03:51:21;9.30;99.90
18173;DHT22;9211;48.818;9.312;2023-12-22T03:53:48;9.20;99.90
18173;DHT22;9211;48.818;9.312;2023-12-22T03:56:15;9.20;99.90
18173;DHT22;9211;48.818;9.312;2023-12-22T03:58:42;9.20;99.90
18173;DHT22;9211;48.818;9.312;2023-12-22T04:01:09;9.20;99.90
18173;DHT22;9211;48.818;9.312;2023-12-22T04:03:37;9.20;99.90
18173;DHT22;9211;48.818;9.312;2023-12-22T04:06:04;9.10;99.90
18173;DHT22;9211;48.818;9.312;2023-12-22T04:10:58;9.10;99.90
18173;DHT22;9211;48.818;9.312;2023-12-22T04:13:25;8.90;99.90
18173;DHT22;9211;48.818;9.312;2023-12-22T04:15:52;8.60;99.90
18173;DHT22;9211;48.818;9.312;2023-12-22T04:18:18;8.50;99.90
18173;DHT22;9211;48.818;9.312;2023-12-22T04:20:47;8.30;99.90
18173;DHT22;9211;48.818;9.312;2023-12-22T04:23:15;8.00;99.90
18173;DHT22;9211;48.818;9.312;2023-12-22T04:25:42;8.10;99.90
18173;DHT22;9211;48.818;9.312;2023-12-22T04:28:09;8.00;99.90
18173;DHT22;9211;48.818;9.312;2023-12-22T04:30:36;8.10;99.90
18173;DHT22;9211;48.818;9.312;2023-12-22T04:33:03;7.90;99.90
18173;DHT22;9211;48.818;9.312;2023-12-22T04:35:30;7.90;99.90
18173;DHT22;9211;48.818;9.312;2023-12-22T04:37:59;7.90;99.90
18173;DHT22;9211;48.818;9.312;2023-12-22T04:40:26;7.80;99.90
18173;DHT22;9211;48.818;9.312;2023-12-22T04:42:53;8.00;99.90
18173;DHT22;9211;48.818;9.312;2023-12-22T04:45:20;8.00;99.90
18173;DHT22;9211;48.818;9.312;2023-12-22T04:47:47;8.00;99.90
18173;DHT22;9211;48.818;9.312;2023-12-22T04:50:14;9.10;99.90
18173;DHT22;9211;48.818;9.312;2023-12-22T04:52:40;8.20;99.90
18173;DHT22;9211;48.818;9.312;2023-12-22T04:55:09;9.40;99.90
18173;DHT22;9211;48.818;9.312;2023-12-22T04:57:36;8.40;99.90
18173;DHT22;9211;48.818;9.312;2023-12-22T05:00:03;8.30;99.90
18173;DHT22;9211;48.818;9.312;2023-12-22T05:02:30;8.40;99.90
18173;DHT22;9211;48.818;9.312;2023-12-22T05:04:57;8.40;99.90
18173;DHT22;9211;48.818;9.312;2023-12-22T05:07:24;8.40;99.90
18173;DHT22;9211;48.818;9.312;2023-12-22T05:09:50;8.50;99.90
18173;DHT22;9211;48.818;9.312;2023-12-22T05:12:21;8.50;99.90
18173;DHT22;9211;48.818;9.312;2023-12-22T05:14:48;8.50;99.90
18173;DHT22;9211;48.818;9.312;2023-12-22T05:17:15;8.50;99.90
18173;DHT22;9211;48.818;9.312;2023-12-22T05:19:41;8.50;99.90
18173;DHT22;9211;48.818;9.312;2023-12-22T05:22:08;8.60;99.90
18173;DHT22;9211;48.818;9.312;2023-12-22T05:24:37;8.90;99.90
18173;DHT22;9211;48.818;9.312;2023-12-22T05:27:04;8.80;99.90
18173;DHT22;9211;48.818;9.312;2023-12-22T05:29:32;8.60;99.90
18173;DHT22;9211;48.818;9.312;2023-12-22T05:31:59;8.60;99.90
18173;DHT22;9211;48.818;9.312;2023-12-22T05:34:26;8.50;99.90
18173;DHT22;9211;48.818;9.312;2023-12-22T05:36:53;8.60;99.90
18173;DHT22;9211;48.818;9.312;2023-12-22T05:39:19;9.10;99.90
18173;DHT22;9211;48.818;9.312;2023-12-22T05:41:46;8.70;99.90
18173;DHT22;9211;48.818;9.312;2023-12-22T05:44:13;8.70;99.90
18173;DHT22;9211;48.818;9.312;2023-12-22T05:46:42;8.80;99.90
18173;DHT22;9211;48.818;9.312;2023-12-22T05:49:08;8.70;99.90
18173;DHT22;9211;48.818;9.312;2023-12-22T05:51:38;8.60;99.90
18173;DHT22;9211;48.818;9.312;2023-12-22T05:54:05;8.50;99.90
18173;DHT22;9211;48.818;9.312;2023-12-22T05:56:32;8.60;99.90
18173;DHT22;9211;48.818;9.312;2023-12-22T05:58:59;8.50;99.90
18173;DHT22;9211;48.818;9.312;2023-12-22T06:01:26;8.60;99.90
18173;DHT22;9211;48.818;9.312;2023-12-22T06:03:54;8.60;99.90
18173;DHT22;9211;48.818;9.312;2023-12-22T06:06:21;8.60;99.90
18173;DHT22;9211;48.818;9.312;2023-12-22T06:08:48;8.70;99.90
18173;DHT22;9211;48.818;9.312;2023-12-22T06:11:15;8.80;99.90
18173;DHT22;9211;48.818;9.312;2023-12-22T06:13:42;8.80;99.90
18173;DHT22;9211;48.818;9.312;2023-12-22T06:16:11;8.90;99.90
18173;DHT22;9211;48.818;9.312;2023-12-22T06:18:39;8.90;99.90
18173;DHT22;9211;48.818;9.312;2023-12-22T06:21:08;9.10;99.90
18173;DHT22;9211;48.818;9.312;2023-12-22T06:23:35;9.00;99.90
18173;DHT22;9211;48.818;9.312;2023-12-22T06:26:07;9.00;99.90
18173;DHT22;9211;48.818;9.312;2023-12-22T06:28:34;8.90;99.90
18173;DHT22;9211;48.818;9.312;2023-12-22T06:31:02;9.00;99.90
18173;DHT22;9211;48.818;9.312;2023-12-22T06:33:29;8.90;99.90
18173;DHT22;9211;48.818;9.312;2023-12-22T06:35:56;8.90;99.90
18173;DHT22;9211;48.818;9.312;2023-12-22T06:38:24;8.90;99.90
18173;DHT22;9211;48.818;9.312;2023-12-22T06:40:51;8.80;99.90
18173;DHT22;9211;48.818;9.312;2023-12-22T06:43:18;9.00;99.90
18173;DHT22;9211;48.818;9.312;2023-12-22T06:45:44;10.10;99.90
18173;DHT22;9211;48.818;9.312;2023-12-22T06:48:11;9.00;99.90
18173;DHT22;9211;48.818;9.312;2023-12-22T06:50:38;9.00;99.90
18173;DHT22;9211;48.818;9.312;2023-12-22T06:53:06;9.00;99.90
18173;DHT22;9211;48.818;9.312;2023-12-22T06:55:34;8.90;99.90
18173;DHT22;9211;48.818;9.312;2023-12-22T06:58:01;9.00;99.90
18173;DHT22;9211;48.818;9.312;2023-12-22T07:00:28;9.00;99.90
18173;DHT22;9211;48.818;9.312;2023-12-22T07:02:55;9.00;99.90
18173;DHT22;9211;48.818;9.312;2023-12-22T07:05:35;9.00;99.90
18173;DHT22;9211;48.818;9.312;2023-12-22T07:08:06;9.00;99.90
18173;DHT22;9211;48.818;9.312;2023-12-22T07:10:34;9.10;99.90
18173;DHT22;9211;48.818;9.312;2023-12-22T07:13:01;9.00;99.90
18173;DHT22;9211;48.818;9.312;2023-12-22T07:15:28;9.00;99.90
18173;DHT22;9211;48.818;9.312;2023-12-22T07:17:55;9.10;99.90
18173;DHT22;9211;48.818;9.312;2023-12-22T07:20:22;9.10;99.90
18173;DHT22;9211;48.818;9.312;2023-12-22T07:22:48;9.00;99.90
18173;DHT22;9211;48.818;9.312;2023-12-22T07:25:16;9.00;99.90
18173;DHT22;9211;48.818;9.312;2023-12-22T07:27:46;9.10;99.90
18173;DHT22;9211;48.818;9.312;2023-12-22T07:30:14;9.20;99.90
18173;DHT22;9211;48.818;9.312;2023-12-22T07:32:43;9.10;99.90
18173;DHT22;9211;48.818;9.312;2023-12-22T07:35:10;9.40;99.90
18173;DHT22;9211;48.818;9.312;2023-12-22T07:37:37;9.10;99.90
18173;DHT22;9211;48.818;9.312;2023-12-22T07:40:05;9.10;99.90
18173;DHT22;9211;48.818;9.312;2023-12-22T07:42:32;9.10;99.90
18173;DHT22;9211;48.818;9.312;2023-12-22T07:45:01;9.10;99.90
18173;DHT22;9211;48.818;9.312;2023-12-22T07:47:28;9.00;99.90
18173;DHT22;9211;48.818;9.312;2023-12-22T07:49:55;9.10;99.90
18173;DHT22;9211;48.818;9.312;2023-12-22T07:52:22;9.20;99.90
18173;DHT22;9211;48.818;9.312;2023-12-22T07:54:49;9.00;99.90
18173;DHT22;9211;48.818;9.312;2023-12-22T07:57:17;9.10;99.90
18173;DHT22;9211;48.818;9.312;2023-12-22T07:59:44;9.10;99.90
18173;DHT22;9211;48.818;9.312;2023-12-22T08:02:12;9.10;99.90
18173;DHT22;9211;48.818;9.312;2023-12-22T08:04:39;9.10;99.90
18173;DHT22;9211;48.818;9.312;2023-12-22T08:07:06;9.10;99.90
18173;DHT22;9211;48.818;9.312;2023-12-22T08:09:33;9.60;99.90
18173;DHT22;9211;48.818;9.312;2023-12-22T08:12:00;9.10;99.90
18173;DHT22;9211;48.818;9.312;2023-12-22T08:14:27;9.10;99.90
18173;DHT22;9211;48.818;9.312;2023-12-22T08:16:54;9.30;99.90
18173;DHT22;9211;48.818;9.312;2023-12-22T08:19:22;9.00;99.90
18173;DHT22;9211;48.818;9.312;2023-12-22T08:21:49;8.80;99.90
18173;DHT22;9211;48.818;9.312;2023-12-22T08:24:16;8.70;99.90
18173;DHT22;9211;48.818;9.312;2023-12-22T08:26:44;8.70;99.90
18173;DHT22;9211;48.818;9.312;2023-12-22T08:29:11;8.60;99.90
18173;DHT22;9211;48.818;9.312;2023-12-22T08:31:38;8.50;99.90
18173;DHT22;9211;48.818;9.312;2023-12-22T08:34:05;8.50;99.90
18173;DHT22;9211;48.818;9.312;2023-12-22T08:36:33;8.40;99.90
18173;DHT22;9211;48.818;9.312;2023-12-22T08:39:00;8.50;99.90
18173;DHT22;9211;48.818;9.312;2023-12-22T08:41:27;8.60;99.90
18173;DHT22;9211;48.818;9.312;2023-12-22T08:43:57;8.60;99.90
18173;DHT22;9211;48.818;9.312;2023-12-22T08:48:52;8.40;99.90
18173;DHT22;9211;48.818;9.312;2023-12-22T08:51:21;8.30;99.90
18173;DHT22;9211;48.818;9.312;2023-12-22T08:56:18;8.40;99.90
18173;DHT22;9211;48.818;9.312;2023-12-22T08:58:46;8.40;99.90
18173;DHT22;9211;48.818;9.312;2023-12-22T09:01:15;8.40;99.90
18173;DHT22;9211;48.818;9.312;2023-12-22T09:03:43;8.30;99.90
18173;DHT22;9211;48.818;9.312;2023-12-22T09:06:14;8.90;99.90
18173;DHT22;9211;48.818;9.312;2023-12-22T09:08:41;8.50;99.90
18173;DHT22;9211;48.818;9.312;2023-12-22T09:11:10;8.40;99.90
18173;DHT22;9211;48.818;9.312;2023-12-22T09:13:37;8.70;99.90
18173;DHT22;9211;48.818;9.312;2023-12-22T09:16:05;8.70;99.90
18173;DHT22;9211;48.818;9.312;2023-12-22T09:18:32;8.70;99.90
18173;DHT22;9211;48.818;9.312;2023-12-22T09:20:59;8.80;99.90
18173;DHT22;9211;48.818;9.312;2023-12-22T09:23:26;8.80;99.90
18173;DHT22;9211;48.818;9.312;2023-12-22T09:25:53;9.80;99.90
18173;DHT22;9211;48.818;9.312;2023-12-22T09:28:21;9.00;99.90
18173;DHT22;9211;48.818;9.312;2023-12-22T09:30:48;9.00;99.90
18173;DHT22;9211;48.818;9.312;2023-12-22T09:33:15;9.00;99.90
18173;DHT22;9211;48.818;9.312;2023-12-22T09:38:10;9.00;99.90
18173;DHT22;9211;48.818;9.312;2023-12-22T09:40:38;9.00;99.90
18173;DHT22;9211;48.818;9.312;2023-12-22T09:43:06;9.00;99.90
18173;DHT22;9211;48.818;9.312;2023-12-22T09:45:36;9.00;99.90
18173;DHT22;9211;48.818;9.312;2023-12-22T09:48:15;9.10;99.90
18173;DHT22;9211;48.818;9.312;2023-12-22T09:50:44;9.10;99.90
18173;DHT22;9211;48.818;9.312;2023-12-22T09:53:12;9.10;99.90
18173;DHT22;9211;48.818;9.312;2023-12-22T09:55:42;9.10;99.90
18173;DHT22;9211;48.818;9.312;2023-12-22T09:58:12;9.20;99.90
18173;DHT22;9211;48.818;9.312;2023-12-22T10:00:42;9.10;99.90
18173;DHT22;9211;48.818;9.312;2023-12-22T10:03:11;9.10;99.90
18173;DHT22;9211;48.818;9.312;2023-12-22T10:05:40;9.20;99.90
18173;DHT22;9211;48.818;9.312;2023-12-22T10:08:08;9.20;99.90
18173;DHT22;9211;48.818;9.312;2023-12-22T10:10:38;9.20;99.90
18173;DHT22;9211;48.818;9.312;2023-12-22T10:13:06;9.20;99.90
18173;DHT22;9211;48.818;9.312;2023-12-22T10:15:36;9.30;99.90
18173;DHT22;9211;48.818;9.312;2023-12-22T10:18:07;9.30;99.90
18173;DHT22;9211;48.818;9.312;2023-12-22T10:20:34;9.30;99.90
18173;DHT22;9211;48.818;9.312;2023-12-22T10:23:02;9.40;99.90
18173;DHT22;9211;48.818;9.312;2023-12-22T10:25:29;9.40;99.90
18173;DHT22;9211;48.818;9.312;2023-12-22T10:27:57;9.40;99.90
18173;DHT22;9211;48.818;9.312;2023-12-22T10:30:25;9.50;99.90
18173;DHT22;9211;48.818;9.312;2023-12-22T10:32:53;9.50;99.90
18173;DHT22;9211;48.818;9.312;2023-12-22T10:35:22;9.50;99.90
18173;DHT22;9211;48.818;9.312;2023-12-22T10:37:49;9.60;99.90
18173;DHT22;9211;48.818;9.312;2023-12-22T10:40:18;9.60;99.90
18173;DHT22;9211;48.818;9.312;2023-12-22T10:42:45;9.60;99.90
18173;DHT22;9211;48.818;9.312;2023-12-22T10:45:12;9.60;99.90
18173;DHT22;9211;48.818;9.312;2023-12-22T10:47:39;9.70;99.90
18173;DHT22;9211;48.818;9.312;2023-12-22T10:50:07;9.60;99.90
18173;DHT22;9211;48.818;9.312;2023-12-22T10:52:35;9.70;99.90
18173;DHT22;9211;48.818;9.312;2023-12-22T10:55:02;9.70;99.90
18173;DHT22;9211;48.818;9.312;2023-12-22T10:57:32;9.60;99.90
18173;DHT22;9211;48.818;9.312;2023-12-22T11:00:04;9.70;99.90
18173;DHT22;9211;48.818;9.312;2023-12-22T11:02:33;9.60;99.90
18173;DHT22;9211;48.818;9.312;2023-12-22T11:05:10;9.70;99.90
18173;DHT22;9211;48.818;9.312;2023-12-22T11:07:41;9.60;99.90
18173;DHT22;9211;48.818;9.312;2023-12-22T11:10:12;10.10;99.90
18173;DHT22;9211;48.818;9.312;2023-12-22T11:12:41;9.70;99.90
18173;DHT22;9211;48.818;9.312;2023-12-22T11:15:10;10.10;99.90
18173;DHT22;9211;48.818;9.312;2023-12-22T11:17:37;9.60;99.90
18173;DHT22;9211;48.818;9.312;2023-12-22T11:20:09;9.70;99.90
18173;DHT22;9211;48.818;9.312;2023-12-22T11:22:36;9.80;99.90
18173;DHT22;9211;48.818;9.312;2023-12-22T11:25:07;8.50;99.90
18173;DHT22;9211;48.818;9.312;2023-12-22T11:27:36;9.80;99.90
18173;DHT22;9211;48.818;9.312;2023-12-22T11:30:06;9.70;99.90
18173;DHT22;9211;48.818;9.312;2023-12-22T11:32:34;9.70;99.90
18173;DHT22;9211;48.818;9.312;2023-12-22T11:35:02;9.70;99.90
18173;DHT22;9211;48.818;9.312;2023-12-22T11:37:31;9.60;99.90
18173;DHT22;9211;48.818;9.312;2023-12-22T11:39:59;9.70;99.90
18173;DHT22;9211;48.818;9.312;2023-12-22T11:42:30;9.60;99.90
18173;DHT22;9211;48.818;9.312;2023-12-22T11:44:58;9.60;99.90
18173;DHT22;9211;48.818;9.312;2023-12-22T11:47:25;9.50;99.90
18173;DHT22;9211;48.818;9.312;2023-12-22T11:49:53;9.50;99.90
18173;DHT22;9211;48.818;9.312;2023-12-22T11:52:25;9.50;99.90
18173;DHT22;9211;48.818;9.312;2023-12-22T11:54:55;9.60;99.90
18173;DHT22;9211;48.818;9.312;2023-12-22T11:57:34;9.50;99.90
18173;DHT22;9211;48.818;9.312;2023-12-22T12:00:07;9.50;99.90
18173;DHT22;9211;48.818;9.312;2023-12-22T12:02:41;9.50;99.90
18173;DHT22;9211;48.818;9.312;2023-12-22T12:05:09;9.50;99.90
18173;DHT22;9211;48.818;9.312;2023-12-22T12:07:40;9.40;99.90
18173;DHT22;9211;48.818;9.312;2023-12-22T12:10:08;9.50;99.90
18173;DHT22;9211;48.818;9.312;2023-12-22T12:12:36;9.30;99.90
18173;DHT22;9211;48.818;9.312;2023-12-22T12:15:08;9.30;99.90
18173;DHT22;9211;48.818;9.312;2023-12-22T12:17:38;9.20;99.90
18173;DHT22;9211;48.818;9.312;2023-12-22T12:20:07;10.00;99.90
18173;DHT22;9211;48.818;9.312;2023-12-22T12:22:35;9.20;99.90
18173;DHT22;9211;48.818;9.312;2023-12-22T12:25:07;9.30;99.90
18173;DHT22;9211;48.818;9.312;2023-12-22T12:27:36;9.20;99.90
18173;DHT22;9211;48.818;9.312;2023-12-22T12:30:11;9.20;99.90
18173;DHT22;9211;48.818;9.312;2023-12-22T12:32:40;9.30;99.90
18173;DHT22;9211;48.818;9.312;2023-12-22T12:35:08;9.30;99.90
18173;DHT22;9211;48.818;9.312;2023-12-22T12:37:35;9.30;99.90
18173;DHT22;9211;48.818;9.312;2023-12-22T12:40:07;9.20;99.90
18173;DHT22;9211;48.818;9.312;2023-12-22T12:45:05;9.20;99.90
18173;DHT22;9211;48.818;9.312;2023-12-22T12:47:32;9.20;99.90
18173;DHT22;9211;48.818;9.312;2023-12-22T12:49:59;9.10;99.90
18173;DHT22;9211;48.818;9.312;2023-12-22T12:52:26;9.10;99.90
18173;DHT22;9211;48.818;9.312;2023-12-22T12:54:53;9.10;99.90
18173;DHT22;9211;48.818;9.312;2023-12-22T12:57:21;9.10;99.90
18173;DHT22;9211;48.818;9.312;2023-12-22T12:59:50;9.10;99.90
18173;DHT22;9211;48.818;9.312;2023-12-22T13:02:17;9.20;99.90
18173;DHT22;9211;48.818;9.312;2023-12-22T13:04:44;9.20;99.90
18173;DHT22;9211;48.818;9.312;2023-12-22T13:07:11;9.20;99.90
18173;DHT22;9211;48.818;9.312;2023-12-22T13:09:39;9.20;99.90
18173;DHT22;9211;48.818;9.312;2023-12-22T13:12:08;9.20;99.90
18173;DHT22;9211;48.818;9.312;2023-12-22T13:14:35;9.20;99.90
18173;DHT22;9211;48.818;9.312;2023-12-22T13:17:04;9.20;99.90
18173;DHT22;9211;48.818;9.312;2023-12-22T13:19:32;9.10;99.90
18173;DHT22;9211;48.818;9.312;2023-12-22T13:21:59;9.20;99.90
18173;DHT22;9211;48.818;9.312;2023-12-22T13:24:26;9.10;99.90
18173;DHT22;9211;48.818;9.312;2023-12-22T13:27:00;9.30;99.90
18173;DHT22;9211;48.818;9.312;2023-12-22T13:29:29;9.30;99.90
18173;DHT22;9211;48.818;9.312;2023-12-22T13:31:56;9.40;99.90
18173;DHT22;9211;48.818;9.312;2023-12-22T13:34:25;9.40;99.90
18173;DHT22;9211;48.818;9.312;2023-12-22T13:36:52;9.50;99.90
18173;DHT22;9211;48.818;9.312;2023-12-22T13:39:19;9.60;99.90
18173;DHT22;9211;48.818;9.312;2023-12-22T13:41:46;9.90;99.90
18173;DHT22;9211;48.818;9.312;2023-12-22T13:46:41;10.00;99.90
18173;DHT22;9211;48.818;9.312;2023-12-22T13:51:41;10.10;99.90
18173;DHT22;9211;48.818;9.312;2023-12-22T13:54:09;10.20;99.90
18173;DHT22;9211;48.818;9.312;2023-12-22T13:56:36;10.20;99.90
18173;DHT22;9211;48.818;9.312;2023-12-22T13:59:06;10.30;99.90
18173;DHT22;9211;48.818;9.312;2023-12-22T14:01:33;10.40;99.90
18173;DHT22;9211;48.818;9.312;2023-12-22T14:04:03;10.50;99.90
18173;DHT22;9211;48.818;9.312;2023-12-22T14:06:31;10.50;99.90
18173;DHT22;9211;48.818;9.312;2023-12-22T14:09:00;10.60;99.90
18173;DHT22;9211;48.818;9.312;2023-12-22T14:11:27;10.70;99.90
18173;DHT22;9211;48.818;9.312;2023-12-22T14:13:55;11.50;99.90
18173;DHT22;9211;48.818;9.312;2023-12-22T14:16:22;10.50;99.90
18173;DHT22;9211;48.818;9.312;2023-12-22T14:18:49;10.80;99.90
18173;DHT22;9211;48.818;9.312;2023-12-22T14:23:44;10.80;99.90
18173;DHT22;9211;48.818;9.312;2023-12-22T14:26:12;11.10;99.90
18173;DHT22;9211;48.818;9.312;2023-12-22T14:28:39;10.70;99.90
18173;DHT22;9211;48.818;9.312;2023-12-22T14:33:33;10.80;99.90
18173;DHT22;9211;48.818;9.312;2023-12-22T14:36:00;10.70;99.90
18173;DHT22;9211;48.818;9.312;2023-12-22T14:38:27;10.70;99.90
18173;DHT22;9211;48.818;9.312;2023-12-22T14:40:54;10.70;99.90
18173;DHT22;9211;48.818;9.312;2023-12-22T14:43:22;10.80;99.90
18173;DHT22;9211;48.818;9.312;2023-12-22T14:45:49;10.80;99.90
18173;DHT22;9211;48.818;9.312;2023-12-22T14:48:16;10.70;99.90
18173;DHT22;9211;48.818;9.312;2023-12-22T14:50:42;10.80;99.90
18173;DHT22;9211;48.818;9.312;2023-12-22T14:53:09;10.80;99.90
18173;DHT22;9211;48.818;9.312;2023-12-22T14:55:36;10.80;99.90
18173;DHT22;9211;48.818;9.312;2023-12-22T14:58:03;10.80;99.90
18173;DHT22;9211;48.818;9.312;2023-12-22T15:00:33;10.80;99.90
18173;DHT22;9211;48.818;9.312;2023-12-22T15:03:00;10.80;99.90
18173;DHT22;9211;48.818;9.312;2023-12-22T15:05:27;11.80;99.90
18173;DHT22;9211;48.818;9.312;2023-12-22T15:07:55;10.80;99.90
18173;DHT22;9211;48.818;9.312;2023-12-22T15:10:22;10.80;99.90
18173;DHT22;9211;48.818;9.312;2023-12-22T15:12:49;10.80;99.90
18173;DHT22;9211;48.818;9.312;2023-12-22T15:15:16;10.80;99.90
18173;DHT22;9211;48.818;9.312;2023-12-22T15:17:45;10.80;99.90
18173;DHT22;9211;48.818;9.312;2023-12-22T15:20:12;10.70;99.90
18173;DHT22;9211;48.818;9.312;2023-12-22T15:22:39;10.80;99.90
18173;DHT22;9211;48.818;9.312;2023-12-22T15:25:06;10.70;99.90
18173;DHT22;9211;48.818;9.312;2023-12-22T15:27:33;10.70;99.90
18173;DHT22;9211;48.818;9.312;2023-12-22T15:30:03;10.70;99.90
18173;DHT22;9211;48.818;9.312;2023-12-22T15:32:30;10.70;99.90
18173;DHT22;9211;48.818;9.312;2023-12-22T15:34:58;11.10;99.90
18173;DHT22;9211;48.818;9.312;2023-12-22T15:37:25;10.60;99.90
18173;DHT22;9211;48.818;9.312;2023-12-22T15:39:52;10.70;99.90
18173;DHT22;9211;48.818;9.312;2023-12-22T15:42:19;10.40;99.90
18173;DHT22;9211;48.818;9.312;2023-12-22T15:44:46;10.70;99.90
18173;DHT22;9211;48.818;9.312;2023-12-22T15:47:13;10.70;99.90
18173;DHT22;9211;48.818;9.312;2023-12-22T15:49:40;10.70;99.90
18173;DHT22;9211;48.818;9.312;2023-12-22T15:52:08;10.70;99.90
18173;DHT22;9211;48.818;9.312;2023-12-22T15:54:38;10.60;99.90
18173;DHT22;9211;48.818;9.312;2023-12-22T15:57:05;10.60;99.90
18173;DHT22;9211;48.818;9.312;2023-12-22T15:59:32;10.60;99.90
18173;DHT22;9211;48.818;9.312;2023-12-22T16:01:59;10.70;99.90
18173;DHT22;9211;48.818;9.312;2023-12-22T16:04:26;10.70;99.90
18173;DHT22;9211;48.818;9.312;2023-12-22T16:06:53;10.70;99.90
18173;DHT22;9211;48.818;9.312;2023-12-22T16:09:22;10.70;99.90
18173;DHT22;9211;48.818;9.312;2023-12-22T16:11:49;10.70;99.90
18173;DHT22;9211;48.818;9.312;2023-12-22T16:14:16;10.70;99.90
18173;DHT22;9211;48.818;9.312;2023-12-22T16:16:43;10.80;99.90
18173;DHT22;9211;48.818;9.312;2023-12-22T16:19:09;10.80;99.90
18173;DHT22;9211;48.818;9.312;2023-12-22T16:21:40;10.80;99.90
18173;DHT22;9211;48.818;9.312;2023-12-22T16:24:07;10.80;99.90
18173;DHT22;9211;48.818;9.312;2023-12-22T16:26:36;10.90;99.90
18173;DHT22;9211;48.818;9.312;2023-12-22T16:29:03;10.90;99.90